sensor_id;sensor_type;location;lat;lon;timestamp;P1;durP1;ratioP1;P2;durP2;ratioP2
17937;SDS011;16051;53.024;8.630;2022-10-16T00:01:22;2.33;;;1.70;;
17937;SDS011;16051;53.024;8.630;2022-10-16T00:05:27;3.27;;;1.60;;
17937;SDS011;16051;53.024;8.630;2022-10-16T00:09:31;3.07;;;1.77;;
17937;SDS011;16051;53.024;8.630;2022-10-16T00:13:33;4.30;;;1.90;;
17937;SDS011;16051;53.024;8.630;2022-10-16T00:17:37;2.57;;;1.57;;
17937;SDS011;16051;53.024;8.630;2022-10-16T00:21:39;2.60;;;1.60;;
17937;SDS011;16051;53.024;8.630;2022-10-16T00:25:43;2.07;;;1.70;;
17937;SDS011;16051;53.024;8.630;2022-10-16T00:29:58;3.83;;;1.80;;
17937;SDS011;16051;53.024;8.630;2022-10-16T00:34:03;3.70;;;1.97;;
17937;SDS011;16051;53.024;8.630;2022-10-16T00:38:05;2.23;;;1.60;;
17937;SDS011;16051;53.024;8.630;2022-10-16T00:42:10;1.70;;;1.50;;
17937;SDS011;16051;53.024;8.630;2022-10-16T00:46:19;3.50;;;1.60;;
17937;SDS011;16051;53.024;8.630;2022-10-16T00:50:26;3.30;;;1.50;;
17937;SDS011;16051;53.024;8.630;2022-10-16T00:54:32;4.97;;;1.70;;
17937;SDS011;16051;53.024;8.630;2022-10-16T00:58:36;2.43;;;1.57;;
17937;SDS011;16051;53.024;8.630;2022-10-16T01:02:38;3.23;;;1.57;;
17937;SDS011;16051;53.024;8.630;2022-10-16T01:06:42;2.57;;;1.60;;
17937;SDS011;16051;53.024;8.630;2022-10-16T01:10:57;1.87;;;1.50;;
17937;SDS011;16051;53.024;8.630;2022-10-16T01:15:13;2.53;;;1.50;;
17937;SDS011;16051;53.024;8.630;2022-10-16T01:19:30;1.67;;;1.30;;
17937;SDS011;16051;53.024;8.630;2022-10-16T01:23:51;3.97;;;1.63;;
17937;SDS011;16051;53.024;8.630;2022-10-16T01:28:08;3.17;;;1.57;;
17937;SDS011;16051;53.024;8.630;2022-10-16T01:32:15;3.47;;;1.60;;
17937;SDS011;16051;53.024;8.630;2022-10-16T01:36:23;2.30;;;1.73;;
17937;SDS011;16051;53.024;8.630;2022-10-16T01:40:35;2.07;;;1.60;;
17937;SDS011;16051;53.024;8.630;2022-10-16T01:44:43;1.97;;;1.70;;
17937;SDS011;16051;53.024;8.630;2022-10-16T01:48:48;3.37;;;1.77;;
17937;SDS011;16051;53.024;8.630;2022-10-16T01:52:53;2.97;;;1.50;;
17937;SDS011;16051;53.024;8.630;2022-10-16T01:56:59;3.03;;;2.00;;
17937;SDS011;16051;53.024;8.630;2022-10-16T02:01:07;3.87;;;1.90;;
17937;SDS011;16051;53.024;8.630;2022-10-16T02:05:30;2.53;;;1.63;;
17937;SDS011;16051;53.024;8.630;2022-10-16T02:09:38;4.40;;;1.70;;
17937;SDS011;16051;53.024;8.630;2022-10-16T02:13:41;2.57;;;2.00;;
17937;SDS011;16051;53.024;8.630;2022-10-16T02:17:50;3.43;;;2.10;;
17937;SDS011;16051;53.024;8.630;2022-10-16T02:21:54;2.53;;;1.57;;
17937;SDS011;16051;53.024;8.630;2022-10-16T02:26:01;2.13;;;1.50;;
17937;SDS011;16051;53.024;8.630;2022-10-16T02:30:11;4.10;;;2.20;;
17937;SDS011;16051;53.024;8.630;2022-10-16T02:38:49;2.63;;;1.73;;
17937;SDS011;16051;53.024;8.630;2022-10-16T02:42:52;2.63;;;1.93;;
17937;SDS011;16051;53.024;8.630;2022-10-16T02:46:56;2.13;;;1.47;;
17937;SDS011;16051;53.024;8.630;2022-10-16T02:51:00;2.67;;;1.90;;
17937;SDS011;16051;53.024;8.630;2022-10-16T02:55:02;4.87;;;2.20;;
17937;SDS011;16051;53.024;8.630;2022-10-16T02:59:05;4.20;;;2.00;;
17937;SDS011;16051;53.024;8.630;2022-10-16T03:03:25;3.43;;;2.10;;
17937;SDS011;16051;53.024;8.630;2022-10-16T03:07:28;3.40;;;2.50;;
17937;SDS011;16051;53.024;8.630;2022-10-16T03:11:30;2.57;;;2.37;;
17937;SDS011;16051;53.024;8.630;2022-10-16T03:15:32;2.70;;;2.20;;
17937;SDS011;16051;53.024;8.630;2022-10-16T03:19:35;4.87;;;2.53;;
17937;SDS011;16051;53.024;8.630;2022-10-16T03:23:38;4.07;;;2.53;;
17937;SDS011;16051;53.024;8.630;2022-10-16T03:27:40;5.10;;;2.70;;
17937;SDS011;16051;53.024;8.630;2022-10-16T03:31:42;3.33;;;2.70;;
17937;SDS011;16051;53.024;8.630;2022-10-16T03:35:50;3.53;;;2.90;;
17937;SDS011;16051;53.024;8.630;2022-10-16T03:39:58;6.23;;;2.97;;
17937;SDS011;16051;53.024;8.630;2022-10-16T03:44:00;4.23;;;3.30;;
17937;SDS011;16051;53.024;8.630;2022-10-16T03:48:02;5.87;;;3.40;;
17937;SDS011;16051;53.024;8.630;2022-10-16T03:52:18;5.07;;;3.17;;
17937;SDS011;16051;53.024;8.630;2022-10-16T03:56:22;6.50;;;3.43;;
17937;SDS011;16051;53.024;8.630;2022-10-16T04:00:24;4.73;;;3.37;;
17937;SDS011;16051;53.024;8.630;2022-10-16T04:04:26;4.83;;;3.50;;
17937;SDS011;16051;53.024;8.630;2022-10-16T04:08:28;4.50;;;3.50;;
17937;SDS011;16051;53.024;8.630;2022-10-16T04:12:32;4.03;;;3.63;;
17937;SDS011;16051;53.024;8.630;2022-10-16T04:16:52;6.77;;;4.27;;
17937;SDS011;16051;53.024;8.630;2022-10-16T04:20:54;8.00;;;4.30;;
17937;SDS011;16051;53.024;8.630;2022-10-16T04:24:56;7.53;;;5.00;;
17937;SDS011;16051;53.024;8.630;2022-10-16T04:28:59;7.47;;;5.40;;
17937;SDS011;16051;53.024;8.630;2022-10-16T04:33:02;7.70;;;5.50;;
17937;SDS011;16051;53.024;8.630;2022-10-16T04:37:04;6.93;;;6.20;;
17937;SDS011;16051;53.024;8.630;2022-10-16T04:41:07;14.37;;;7.00;;
17937;SDS011;16051;53.024;8.630;2022-10-16T04:45:11;8.37;;;6.30;;
17937;SDS011;16051;53.024;8.630;2022-10-16T04:49:13;10.13;;;6.30;;
17937;SDS011;16051;53.024;8.630;2022-10-16T04:53:15;9.70;;;6.60;;
17937;SDS011;16051;53.024;8.630;2022-10-16T04:57:17;7.47;;;6.50;;
17937;SDS011;16051;53.024;8.630;2022-10-16T05:01:21;9.07;;;6.60;;
17937;SDS011;16051;53.024;8.630;2022-10-16T05:05:23;11.73;;;7.53;;
17937;SDS011;16051;53.024;8.630;2022-10-16T05:09:25;7.90;;;6.50;;
17937;SDS011;16051;53.024;8.630;2022-10-16T05:13:27;10.37;;;7.70;;
17937;SDS011;16051;53.024;8.630;2022-10-16T05:17:31;9.93;;;7.50;;
17937;SDS011;16051;53.024;8.630;2022-10-16T05:21:33;9.87;;;7.60;;
17937;SDS011;16051;53.024;8.630;2022-10-16T05:25:35;13.13;;;8.00;;
17937;SDS011;16051;53.024;8.630;2022-10-16T05:29:43;9.87;;;8.50;;
17937;SDS011;16051;53.024;8.630;2022-10-16T05:33:48;9.63;;;7.60;;
17937;SDS011;16051;53.024;8.630;2022-10-16T05:37:50;11.03;;;7.93;;
17937;SDS011;16051;53.024;8.630;2022-10-16T05:41:53;12.53;;;7.70;;
17937;SDS011;16051;53.024;8.630;2022-10-16T05:45:56;12.17;;;7.83;;
17937;SDS011;16051;53.024;8.630;2022-10-16T05:50:16;10.57;;;7.70;;
17937;SDS011;16051;53.024;8.630;2022-10-16T05:54:18;9.70;;;7.03;;
17937;SDS011;16051;53.024;8.630;2022-10-16T05:58:20;8.23;;;6.70;;
17937;SDS011;16051;53.024;8.630;2022-10-16T06:02:22;7.97;;;6.43;;
17937;SDS011;16051;53.024;8.630;2022-10-16T06:06:27;11.03;;;7.63;;
17937;SDS011;16051;53.024;8.630;2022-10-16T06:10:29;9.57;;;6.77;;
17937;SDS011;16051;53.024;8.630;2022-10-16T06:14:31;8.70;;;7.00;;
17937;SDS011;16051;53.024;8.630;2022-10-16T06:18:35;11.40;;;7.10;;
17937;SDS011;16051;53.024;8.630;2022-10-16T06:22:38;8.17;;;6.10;;
17937;SDS011;16051;53.024;8.630;2022-10-16T06:26:40;7.27;;;6.00;;
17937;SDS011;16051;53.024;8.630;2022-10-16T06:30:43;9.30;;;6.50;;
17937;SDS011;16051;53.024;8.630;2022-10-16T06:34:45;8.67;;;6.73;;
17937;SDS011;16051;53.024;8.630;2022-10-16T06:38:55;7.17;;;5.80;;
17937;SDS011;16051;53.024;8.630;2022-10-16T06:42:57;8.57;;;6.60;;
17937;SDS011;16051;53.024;8.630;2022-10-16T06:46:59;9.07;;;6.77;;
17937;SDS011;16051;53.024;8.630;2022-10-16T06:55:33;7.97;;;7.10;;
17937;SDS011;16051;53.024;8.630;2022-10-16T06:59:35;6.90;;;6.20;;
17937;SDS011;16051;53.024;8.630;2022-10-16T07:03:37;7.73;;;5.97;;
17937;SDS011;16051;53.024;8.630;2022-10-16T07:12:22;8.70;;;6.23;;
17937;SDS011;16051;53.024;8.630;2022-10-16T07:16:25;7.97;;;6.57;;
17937;SDS011;16051;53.024;8.630;2022-10-16T07:20:29;6.77;;;5.30;;
17937;SDS011;16051;53.024;8.630;2022-10-16T07:24:31;9.00;;;6.03;;
17937;SDS011;16051;53.024;8.630;2022-10-16T07:28:42;6.80;;;5.30;;
17937;SDS011;16051;53.024;8.630;2022-10-16T07:32:44;8.20;;;5.60;;
17937;SDS011;16051;53.024;8.630;2022-10-16T07:36:47;7.10;;;5.53;;
17937;SDS011;16051;53.024;8.630;2022-10-16T07:40:55;6.73;;;5.20;;
17937;SDS011;16051;53.024;8.630;2022-10-16T07:45:00;6.53;;;5.37;;
17937;SDS011;16051;53.024;8.630;2022-10-16T07:49:02;6.23;;;4.63;;
17937;SDS011;16051;53.024;8.630;2022-10-16T07:53:04;8.43;;;5.43;;
17937;SDS011;16051;53.024;8.630;2022-10-16T07:57:07;7.33;;;4.93;;
17937;SDS011;16051;53.024;8.630;2022-10-16T08:05:46;7.00;;;4.30;;
17937;SDS011;16051;53.024;8.630;2022-10-16T08:14:01;6.20;;;3.90;;
17937;SDS011;16051;53.024;8.630;2022-10-16T08:18:05;6.40;;;4.20;;
17937;SDS011;16051;53.024;8.630;2022-10-16T08:22:24;5.63;;;3.60;;
17937;SDS011;16051;53.024;8.630;2022-10-16T08:26:27;5.17;;;4.10;;
17937;SDS011;16051;53.024;8.630;2022-10-16T08:30:44;4.27;;;3.20;;
17937;SDS011;16051;53.024;8.630;2022-10-16T08:34:48;4.33;;;3.40;;
17937;SDS011;16051;53.024;8.630;2022-10-16T08:38:50;3.93;;;3.37;;
17937;SDS011;16051;53.024;8.630;2022-10-16T08:47:49;4.43;;;3.03;;
17937;SDS011;16051;53.024;8.630;2022-10-16T08:52:16;4.40;;;2.40;;
17937;SDS011;16051;53.024;8.630;2022-10-16T08:56:18;4.87;;;2.70;;
17937;SDS011;16051;53.024;8.630;2022-10-16T09:00:20;5.57;;;2.70;;
17937;SDS011;16051;53.024;8.630;2022-10-16T09:04:29;3.70;;;2.53;;
17937;SDS011;16051;53.024;8.630;2022-10-16T09:09:06;3.97;;;2.30;;
17937;SDS011;16051;53.024;8.630;2022-10-16T09:13:30;7.17;;;2.63;;
17937;SDS011;16051;53.024;8.630;2022-10-16T09:17:49;4.13;;;2.10;;
17937;SDS011;16051;53.024;8.630;2022-10-16T09:22:01;2.57;;;1.80;;
17937;SDS011;16051;53.024;8.630;2022-10-16T09:30:32;2.57;;;1.70;;
17937;SDS011;16051;53.024;8.630;2022-10-16T09:34:48;2.70;;;1.67;;
17937;SDS011;16051;53.024;8.630;2022-10-16T09:39:03;4.63;;;2.10;;
17937;SDS011;16051;53.024;8.630;2022-10-16T09:43:16;4.87;;;2.10;;
17937;SDS011;16051;53.024;8.630;2022-10-16T09:47:31;3.10;;;1.40;;
17937;SDS011;16051;53.024;8.630;2022-10-16T09:51:41;5.30;;;1.70;;
17937;SDS011;16051;53.024;8.630;2022-10-16T09:55:49;4.10;;;1.40;;
17937;SDS011;16051;53.024;8.630;2022-10-16T09:59:55;3.37;;;1.80;;
17937;SDS011;16051;53.024;8.630;2022-10-16T10:03:59;1.83;;;1.57;;
17937;SDS011;16051;53.024;8.630;2022-10-16T10:08:05;3.27;;;1.20;;
17937;SDS011;16051;53.024;8.630;2022-10-16T10:12:14;5.03;;;1.40;;
17937;SDS011;16051;53.024;8.630;2022-10-16T10:16:24;3.27;;;1.37;;
17937;SDS011;16051;53.024;8.630;2022-10-16T10:20:27;1.80;;;1.07;;
17937;SDS011;16051;53.024;8.630;2022-10-16T10:24:32;3.40;;;1.53;;
17937;SDS011;16051;53.024;8.630;2022-10-16T10:28:47;4.07;;;1.30;;
17937;SDS011;16051;53.024;8.630;2022-10-16T10:33:07;3.37;;;1.13;;
17937;SDS011;16051;53.024;8.630;2022-10-16T10:42:00;2.20;;;1.10;;
17937;SDS011;16051;53.024;8.630;2022-10-16T10:46:25;4.47;;;1.27;;
17937;SDS011;16051;53.024;8.630;2022-10-16T10:50:53;3.60;;;1.10;;
17937;SDS011;16051;53.024;8.630;2022-10-16T10:55:03;4.50;;;1.40;;
17937;SDS011;16051;53.024;8.630;2022-10-16T10:59:30;3.50;;;1.23;;
17937;SDS011;16051;53.024;8.630;2022-10-16T11:04:15;1.93;;;1.20;;
17937;SDS011;16051;53.024;8.630;2022-10-16T11:08:41;2.60;;;1.40;;
17937;SDS011;16051;53.024;8.630;2022-10-16T11:12:50;4.10;;;1.30;;
17937;SDS011;16051;53.024;8.630;2022-10-16T11:17:07;3.93;;;1.30;;
17937;SDS011;16051;53.024;8.630;2022-10-16T11:21:16;4.17;;;2.20;;
17937;SDS011;16051;53.024;8.630;2022-10-16T11:25:24;4.10;;;2.80;;
17937;SDS011;16051;53.024;8.630;2022-10-16T11:29:30;3.33;;;2.43;;
17937;SDS011;16051;53.024;8.630;2022-10-16T11:37:48;5.43;;;2.83;;
17937;SDS011;16051;53.024;8.630;2022-10-16T11:41:58;2.23;;;2.03;;
17937;SDS011;16051;53.024;8.630;2022-10-16T11:46:09;3.93;;;1.83;;
17937;SDS011;16051;53.024;8.630;2022-10-16T11:54:47;3.77;;;1.70;;
17937;SDS011;16051;53.024;8.630;2022-10-16T11:58:59;4.20;;;1.70;;
17937;SDS011;16051;53.024;8.630;2022-10-16T12:03:10;4.73;;;1.37;;
17937;SDS011;16051;53.024;8.630;2022-10-16T12:07:21;4.77;;;1.77;;
17937;SDS011;16051;53.024;8.630;2022-10-16T12:15:42;4.43;;;1.20;;
17937;SDS011;16051;53.024;8.630;2022-10-16T12:20:00;2.93;;;1.03;;
17937;SDS011;16051;53.024;8.630;2022-10-16T12:24:36;6.07;;;1.10;;
17937;SDS011;16051;53.024;8.630;2022-10-16T12:28:48;2.33;;;1.00;;
17937;SDS011;16051;53.024;8.630;2022-10-16T12:32:58;5.40;;;1.23;;
17937;SDS011;16051;53.024;8.630;2022-10-16T12:37:11;6.87;;;1.73;;
17937;SDS011;16051;53.024;8.630;2022-10-16T12:41:25;2.57;;;0.93;;
17937;SDS011;16051;53.024;8.630;2022-10-16T12:45:43;4.23;;;1.50;;
17937;SDS011;16051;53.024;8.630;2022-10-16T12:49:49;5.83;;;1.43;;
17937;SDS011;16051;53.024;8.630;2022-10-16T12:53:59;3.03;;;1.20;;
17937;SDS011;16051;53.024;8.630;2022-10-16T12:58:06;4.27;;;1.30;;
17937;SDS011;16051;53.024;8.630;2022-10-16T13:02:37;5.10;;;1.23;;
17937;SDS011;16051;53.024;8.630;2022-10-16T13:07:00;3.70;;;0.93;;
17937;SDS011;16051;53.024;8.630;2022-10-16T13:11:22;4.70;;;1.30;;
17937;SDS011;16051;53.024;8.630;2022-10-16T13:20:31;5.23;;;1.93;;
17937;SDS011;16051;53.024;8.630;2022-10-16T13:24:48;4.50;;;1.90;;
17937;SDS011;16051;53.024;8.630;2022-10-16T13:29:04;3.07;;;1.40;;
17937;SDS011;16051;53.024;8.630;2022-10-16T13:33:14;4.17;;;1.70;;
17937;SDS011;16051;53.024;8.630;2022-10-16T13:37:22;3.37;;;1.50;;
17937;SDS011;16051;53.024;8.630;2022-10-16T13:41:27;8.20;;;1.50;;
17937;SDS011;16051;53.024;8.630;2022-10-16T13:45:37;4.93;;;1.50;;
17937;SDS011;16051;53.024;8.630;2022-10-16T13:49:39;4.77;;;1.30;;
17937;SDS011;16051;53.024;8.630;2022-10-16T13:53:41;4.50;;;1.00;;
17937;SDS011;16051;53.024;8.630;2022-10-16T13:57:46;4.30;;;1.53;;
17937;SDS011;16051;53.024;8.630;2022-10-16T14:01:49;4.67;;;1.50;;
17937;SDS011;16051;53.024;8.630;2022-10-16T14:10:23;5.50;;;1.33;;
17937;SDS011;16051;53.024;8.630;2022-10-16T14:14:32;2.50;;;1.07;;
17937;SDS011;16051;53.024;8.630;2022-10-16T14:18:44;3.83;;;1.20;;
17937;SDS011;16051;53.024;8.630;2022-10-16T14:23:00;2.90;;;1.47;;
17937;SDS011;16051;53.024;8.630;2022-10-16T14:27:26;4.17;;;1.23;;
17937;SDS011;16051;53.024;8.630;2022-10-16T14:31:33;3.20;;;1.30;;
17937;SDS011;16051;53.024;8.630;2022-10-16T14:35:37;2.30;;;1.20;;
17937;SDS011;16051;53.024;8.630;2022-10-16T14:39:50;4.00;;;1.30;;
17937;SDS011;16051;53.024;8.630;2022-10-16T14:43:53;4.50;;;1.23;;
17937;SDS011;16051;53.024;8.630;2022-10-16T14:48:00;4.10;;;1.43;;
17937;SDS011;16051;53.024;8.630;2022-10-16T14:52:10;7.33;;;1.50;;
17937;SDS011;16051;53.024;8.630;2022-10-16T15:00:52;4.27;;;1.70;;
17937;SDS011;16051;53.024;8.630;2022-10-16T15:05:07;2.97;;;1.17;;
17937;SDS011;16051;53.024;8.630;2022-10-16T15:09:31;5.93;;;2.07;;
17937;SDS011;16051;53.024;8.630;2022-10-16T15:13:33;5.93;;;1.70;;
17937;SDS011;16051;53.024;8.630;2022-10-16T15:17:38;4.90;;;1.80;;
17937;SDS011;16051;53.024;8.630;2022-10-16T15:21:54;2.53;;;1.37;;
17937;SDS011;16051;53.024;8.630;2022-10-16T15:25:56;6.27;;;1.90;;
17937;SDS011;16051;53.024;8.630;2022-10-16T15:30:00;3.97;;;1.80;;
17937;SDS011;16051;53.024;8.630;2022-10-16T15:34:03;5.13;;;2.53;;
17937;SDS011;16051;53.024;8.630;2022-10-16T15:38:07;7.03;;;2.77;;
17937;SDS011;16051;53.024;8.630;2022-10-16T15:50:40;2.80;;;1.97;;
17937;SDS011;16051;53.024;8.630;2022-10-16T15:54:44;4.77;;;1.70;;
17937;SDS011;16051;53.024;8.630;2022-10-16T15:58:49;4.80;;;1.70;;
17937;SDS011;16051;53.024;8.630;2022-10-16T16:02:51;3.20;;;1.53;;
17937;SDS011;16051;53.024;8.630;2022-10-16T16:06:56;2.57;;;1.57;;
17937;SDS011;16051;53.024;8.630;2022-10-16T16:11:00;3.20;;;1.20;;
17937;SDS011;16051;53.024;8.630;2022-10-16T16:15:06;2.50;;;1.77;;
17937;SDS011;16051;53.024;8.630;2022-10-16T16:19:13;3.50;;;1.60;;
17937;SDS011;16051;53.024;8.630;2022-10-16T16:27:29;2.27;;;1.90;;
17937;SDS011;16051;53.024;8.630;2022-10-16T16:31:48;4.73;;;2.50;;
17937;SDS011;16051;53.024;8.630;2022-10-16T16:35:57;6.00;;;2.80;;
17937;SDS011;16051;53.024;8.630;2022-10-16T16:40:00;3.33;;;2.13;;
17937;SDS011;16051;53.024;8.630;2022-10-16T16:44:05;2.50;;;1.70;;
17937;SDS011;16051;53.024;8.630;2022-10-16T16:48:12;3.90;;;1.97;;
17937;SDS011;16051;53.024;8.630;2022-10-16T16:52:14;5.20;;;2.10;;
17937;SDS011;16051;53.024;8.630;2022-10-16T16:56:18;6.80;;;2.93;;
17937;SDS011;16051;53.024;8.630;2022-10-16T17:00:24;4.43;;;2.00;;
17937;SDS011;16051;53.024;8.630;2022-10-16T17:09:00;3.83;;;1.83;;
17937;SDS011;16051;53.024;8.630;2022-10-16T17:13:05;4.27;;;1.50;;
17937;SDS011;16051;53.024;8.630;2022-10-16T17:17:08;2.93;;;1.47;;
17937;SDS011;16051;53.024;8.630;2022-10-16T17:21:10;3.50;;;1.40;;
17937;SDS011;16051;53.024;8.630;2022-10-16T17:25:13;5.47;;;1.63;;
17937;SDS011;16051;53.024;8.630;2022-10-16T17:29:16;2.80;;;1.70;;
17937;SDS011;16051;53.024;8.630;2022-10-16T17:33:20;4.47;;;1.60;;
17937;SDS011;16051;53.024;8.630;2022-10-16T17:45:53;3.60;;;1.53;;
17937;SDS011;16051;53.024;8.630;2022-10-16T17:49:57;3.97;;;1.87;;
17937;SDS011;16051;53.024;8.630;2022-10-16T17:54:00;2.50;;;1.60;;
17937;SDS011;16051;53.024;8.630;2022-10-16T17:58:05;2.67;;;1.70;;
17937;SDS011;16051;53.024;8.630;2022-10-16T18:02:08;3.97;;;2.07;;
17937;SDS011;16051;53.024;8.630;2022-10-16T18:06:14;4.90;;;2.53;;
17937;SDS011;16051;53.024;8.630;2022-10-16T18:10:16;7.87;;;5.10;;
17937;SDS011;16051;53.024;8.630;2022-10-16T18:19:03;4.20;;;2.40;;
17937;SDS011;16051;53.024;8.630;2022-10-16T18:23:07;3.27;;;2.27;;
17937;SDS011;16051;53.024;8.630;2022-10-16T18:27:12;4.63;;;3.20;;
17937;SDS011;16051;53.024;8.630;2022-10-16T18:31:16;4.47;;;2.80;;
17937;SDS011;16051;53.024;8.630;2022-10-16T18:39:48;5.10;;;3.20;;
17937;SDS011;16051;53.024;8.630;2022-10-16T18:43:51;4.80;;;3.10;;
17937;SDS011;16051;53.024;8.630;2022-10-16T18:47:55;5.10;;;2.63;;
17937;SDS011;16051;53.024;8.630;2022-10-16T18:52:06;3.83;;;3.03;;
17937;SDS011;16051;53.024;8.630;2022-10-16T18:56:09;6.20;;;3.30;;
17937;SDS011;16051;53.024;8.630;2022-10-16T19:00:17;10.67;;;3.27;;
17937;SDS011;16051;53.024;8.630;2022-10-16T19:04:19;7.23;;;3.27;;
17937;SDS011;16051;53.024;8.630;2022-10-16T19:08:23;4.77;;;3.17;;
17937;SDS011;16051;53.024;8.630;2022-10-16T19:12:32;6.47;;;3.27;;
17937;SDS011;16051;53.024;8.630;2022-10-16T19:16:34;3.63;;;2.93;;
17937;SDS011;16051;53.024;8.630;2022-10-16T19:20:40;5.07;;;3.50;;
17937;SDS011;16051;53.024;8.630;2022-10-16T19:24:47;3.93;;;3.40;;
17937;SDS011;16051;53.024;8.630;2022-10-16T19:28:51;3.20;;;2.90;;
17937;SDS011;16051;53.024;8.630;2022-10-16T19:32:57;6.00;;;3.73;;
17937;SDS011;16051;53.024;8.630;2022-10-16T19:37:01;4.80;;;3.63;;
17937;SDS011;16051;53.024;8.630;2022-10-16T19:45:22;7.57;;;4.17;;
17937;SDS011;16051;53.024;8.630;2022-10-16T19:49:25;6.07;;;3.37;;
17937;SDS011;16051;53.024;8.630;2022-10-16T19:53:27;6.37;;;3.70;;
17937;SDS011;16051;53.024;8.630;2022-10-16T19:57:32;8.20;;;4.00;;
17937;SDS011;16051;53.024;8.630;2022-10-16T20:01:36;4.30;;;3.90;;
17937;SDS011;16051;53.024;8.630;2022-10-16T20:05:38;6.57;;;4.47;;
17937;SDS011;16051;53.024;8.630;2022-10-16T20:09:40;5.00;;;4.50;;
17937;SDS011;16051;53.024;8.630;2022-10-16T20:13:43;6.07;;;5.00;;
17937;SDS011;16051;53.024;8.630;2022-10-16T20:17:47;8.53;;;6.07;;
17937;SDS011;16051;53.024;8.630;2022-10-16T20:21:49;7.73;;;6.47;;
17937;SDS011;16051;53.024;8.630;2022-10-16T20:25:51;8.57;;;6.87;;
17937;SDS011;16051;53.024;8.630;2022-10-16T20:29:54;10.57;;;6.80;;
17937;SDS011;16051;53.024;8.630;2022-10-16T20:34:00;7.27;;;5.77;;
17937;SDS011;16051;53.024;8.630;2022-10-16T20:38:05;6.63;;;4.60;;
17937;SDS011;16051;53.024;8.630;2022-10-16T20:42:07;6.33;;;3.90;;
17937;SDS011;16051;53.024;8.630;2022-10-16T20:46:10;10.70;;;3.97;;
17937;SDS011;16051;53.024;8.630;2022-10-16T20:50:17;6.57;;;3.20;;
17937;SDS011;16051;53.024;8.630;2022-10-16T20:54:19;5.57;;;3.57;;
17937;SDS011;16051;53.024;8.630;2022-10-16T20:58:22;5.37;;;3.80;;
17937;SDS011;16051;53.024;8.630;2022-10-16T21:02:24;5.17;;;3.13;;
17937;SDS011;16051;53.024;8.630;2022-10-16T21:06:28;6.57;;;3.43;;
17937;SDS011;16051;53.024;8.630;2022-10-16T21:10:32;4.33;;;3.30;;
17937;SDS011;16051;53.024;8.630;2022-10-16T21:14:35;5.70;;;3.70;;
17937;SDS011;16051;53.024;8.630;2022-10-16T21:18:47;6.17;;;3.70;;
17937;SDS011;16051;53.024;8.630;2022-10-16T21:22:51;5.67;;;2.97;;
17937;SDS011;16051;53.024;8.630;2022-10-16T21:26:53;4.27;;;2.87;;
17937;SDS011;16051;53.024;8.630;2022-10-16T21:30:55;4.97;;;3.27;;
17937;SDS011;16051;53.024;8.630;2022-10-16T21:34:57;5.70;;;2.83;;
17937;SDS011;16051;53.024;8.630;2022-10-16T21:39:02;8.80;;;3.10;;
17937;SDS011;16051;53.024;8.630;2022-10-16T21:43:05;5.33;;;3.40;;
17937;SDS011;16051;53.024;8.630;2022-10-16T21:47:09;6.40;;;3.20;;
17937;SDS011;16051;53.024;8.630;2022-10-16T21:51:11;7.27;;;3.67;;
17937;SDS011;16051;53.024;8.630;2022-10-16T21:55:16;5.23;;;3.80;;
17937;SDS011;16051;53.024;8.630;2022-10-16T21:59:18;5.00;;;3.50;;
17937;SDS011;16051;53.024;8.630;2022-10-16T22:03:21;12.83;;;4.87;;
17937;SDS011;16051;53.024;8.630;2022-10-16T22:07:23;7.67;;;4.70;;
17937;SDS011;16051;53.024;8.630;2022-10-16T22:11:27;10.00;;;5.13;;
17937;SDS011;16051;53.024;8.630;2022-10-16T22:15:35;8.30;;;5.00;;
17937;SDS011;16051;53.024;8.630;2022-10-16T22:19:37;7.70;;;4.53;;
17937;SDS011;16051;53.024;8.630;2022-10-16T22:23:40;7.90;;;4.53;;
17937;SDS011;16051;53.024;8.630;2022-10-16T22:27:43;5.57;;;4.37;;
17937;SDS011;16051;53.024;8.630;2022-10-16T22:31:48;7.90;;;4.57;;
17937;SDS011;16051;53.024;8.630;2022-10-16T22:35:52;7.13;;;4.57;;
17937;SDS011;16051;53.024;8.630;2022-10-16T22:39:54;7.57;;;4.00;;
17937;SDS011;16051;53.024;8.630;2022-10-16T22:43:57;13.57;;;5.67;;
17937;SDS011;16051;53.024;8.630;2022-10-16T22:47:59;5.03;;;4.00;;
17937;SDS011;16051;53.024;8.630;2022-10-16T22:52:02;5.37;;;3.30;;
17937;SDS011;16051;53.024;8.630;2022-10-16T22:56:04;5.93;;;3.30;;
17937;SDS011;16051;53.024;8.630;2022-10-16T23:00:10;4.70;;;3.40;;
17937;SDS011;16051;53.024;8.630;2022-10-16T23:04:18;8.73;;;3.80;;
17937;SDS011;16051;53.024;8.630;2022-10-16T23:08:20;6.30;;;3.43;;
17937;SDS011;16051;53.024;8.630;2022-10-16T23:12:27;7.53;;;3.80;;
17937;SDS011;16051;53.024;8.630;2022-10-16T23:16:31;4.73;;;3.20;;
17937;SDS011;16051;53.024;8.630;2022-10-16T23:20:33;4.73;;;3.13;;
17937;SDS011;16051;53.024;8.630;2022-10-16T23:24:52;4.47;;;3.13;;
17937;SDS011;16051;53.024;8.630;2022-10-16T23:28:55;3.83;;;2.90;;
17937;SDS011;16051;53.024;8.630;2022-10-16T23:33:00;3.93;;;2.90;;
17937;SDS011;16051;53.024;8.630;2022-10-16T23:37:02;6.37;;;3.37;;
17937;SDS011;16051;53.024;8.630;2022-10-16T23:41:05;4.33;;;3.03;;
17937;SDS011;16051;53.024;8.630;2022-10-16T23:45:08;7.13;;;3.37;;
17937;SDS011;16051;53.024;8.630;2022-10-16T23:49:11;7.43;;;3.60;;
17937;SDS011;16051;53.024;8.630;2022-10-16T23:53:13;5.83;;;2.90;;
17937;SDS011;16051;53.024;8.630;2022-10-16T23:57:16;3.47;;;2.90;;
